Tingley, Iowa
Current Conditions -  °F | °C
As of 7:15 AM on Sunday 23 Nov 2014 (Local Time) from KCSQ Reporting Station
Haze Haze  
Wind Chill: 52°   Ceiling: 300
Heat Index: 52°   Visibility: 1mi
Dew Point: 52°   Wind: 13mph
Humidity: 100%   Direction: 180°S
Pressure: 29.52"   Gusts: NA
Location:  40.85°N, 94.2°W
Report Text: KCSQ 231315Z AUTO 18011KT 1SM BR OVC003 11/11 A2952 RMK AO2
Loading
Personal Weather Stations






























Interactive Weather Map New forecast layout! Learn more

10-Day Weather Forecast

Advertisements
Track Severe Weather on mobile